Time;durP1;ratioP1;P1;durP2;ratioP2;P2;SDS_P1;SDS_P2;PMS_P1;PMS_P2;Temp;Humidity;BMP_temperature;BMP_pressure;BME280_temperature;BME280_humidity;BME280_pressure;Samples;Min_cycle;Max_cycle;Signal;HPM_P1;HPM_P2
2023/01/15 00:01:20;;;;;;;7.47;1.60;;;;;;;13.05;72.89;100272.16;4992337;28;20034;-59
2023/01/15 00:03:47;;;;;;;7.70;1.80;;;;;;;12.92;73.47;100274.03;4992333;28;20022;-58
2023/01/15 00:06:15;;;;;;;4.07;1.50;;;;;;;12.83;74.56;100275.47;4989865;28;20026;-59
2023/01/15 00:08:42;;;;;;;4.20;1.15;;;;;;;12.95;73.27;100286.19;4991827;28;20030;-59
2023/01/15 00:11:08;;;;;;;3.90;1.08;;;;;;;12.66;75.23;100278.03;4990881;28;20153;-58
2023/01/15 00:13:35;;;;;;;4.30;1.15;;;;;;;12.69;73.76;100266.00;4991690;28;20023;-59
2023/01/15 00:16:06;;;;;;;2.72;0.70;;;;;;;12.78;73.50;100267.28;4990022;28;20045;-58
2023/01/15 00:18:32;;;;;;;4.40;1.15;;;;;;;12.65;74.56;100280.94;4989076;28;20027;-58
2023/01/15 00:21:00;;;;;;;5.45;1.60;;;;;;;12.49;75.99;100276.25;4988629;28;20027;-58
2023/01/15 00:29:02;;;;;;;7.15;2.28;;;;;;;12.09;79.14;100269.66;4991949;28;20085;-58
2023/01/15 00:31:31;;;;;;;6.32;2.00;;;;;;;11.94;80.91;100284.53;4991867;28;20101;-58
2023/01/15 00:33:57;;;;;;;10.98;2.83;;;;;;;12.02;82.41;100289.59;4992051;28;20092;-58
2023/01/15 00:36:24;;;;;;;6.72;2.40;;;;;;;11.91;83.34;100274.28;4994087;28;20125;-58
2023/01/15 00:38:51;;;;;;;10.35;2.63;;;;;;;11.95;83.03;100254.00;4995392;28;20023;-58
2023/01/15 00:41:18;;;;;;;10.43;2.47;;;;;;;11.61;85.25;100251.75;4992705;28;20101;-58
2023/01/15 00:43:44;;;;;;;14.77;2.85;;;;;;;11.71;85.27;100245.84;4991235;28;20038;-58
2023/01/15 00:46:10;;;;;;;8.50;2.65;;;;;;;11.72;85.06;100236.78;4992207;28;20026;-58
2023/01/15 00:48:38;;;;;;;11.60;3.17;;;;;;;11.64;85.98;100237.88;4995541;28;20105;-58
2023/01/15 00:51:04;;;;;;;13.10;3.30;;;;;;;11.66;86.33;100245.72;4995899;28;20029;-58
2023/01/15 00:53:31;;;;;;;11.95;3.40;;;;;;;11.80;86.04;100252.53;4995622;28;20066;-59
2023/01/15 00:55:57;;;;;;;15.88;4.05;;;;;;;11.82;85.42;100252.31;4995509;28;20034;-58
2023/01/15 00:58:24;;;;;;;24.95;4.57;;;;;;;11.74;85.85;100237.34;4995468;28;20020;-58
2023/01/15 01:00:58;;;;;;;24.70;4.57;;;;;;;11.78;85.49;100243.91;4995408;28;20034;-58
2023/01/15 01:03:24;;;;;;;20.92;4.00;;;;;;;11.84;82.88;100240.34;4995593;28;20026;-59
2023/01/15 01:05:50;;;;;;;16.83;3.10;;;;;;;11.81;80.30;100239.94;4995464;28;20022;-58
2023/01/15 01:08:17;;;;;;;6.90;1.67;;;;;;;11.78;77.60;100243.09;4995320;28;20473;-58
2023/01/15 01:10:43;;;;;;;4.75;1.35;;;;;;;11.71;77.69;100242.34;4995235;28;20026;-58
2023/01/15 01:13:10;;;;;;;4.90;1.40;;;;;;;11.83;77.98;100238.69;4995115;28;20022;-59
2023/01/15 01:15:37;;;;;;;4.78;1.30;;;;;;;11.67;78.08;100258.06;4995438;28;20034;-59
2023/01/15 01:18:04;;;;;;;4.70;1.60;;;;;;;11.70;78.51;100246.88;4995131;28;20026;-59
2023/01/15 01:20:31;;;;;;;7.35;2.00;;;;;;;11.56;80.15;100242.75;4995315;28;20030;-59
2023/01/15 01:22:58;;;;;;;12.77;2.45;;;;;;;11.63;80.53;100240.81;4982882;28;20031;-59
2023/01/15 01:25:24;;;;;;;10.13;2.65;;;;;;;11.69;81.22;100268.56;4987450;28;20034;-59
2023/01/15 01:27:50;;;;;;;12.50;3.95;;;;;;;11.81;81.61;100299.75;4975238;28;20034;-59
2023/01/15 01:30:17;;;;;;;11.43;2.95;;;;;;;11.69;80.84;100314.97;4975656;28;20139;-59
2023/01/15 01:32:44;;;;;;;6.88;2.28;;;;;;;11.52;79.78;100324.66;4975754;28;20027;-58
2023/01/15 01:35:11;;;;;;;6.80;1.77;;;;;;;11.43;80.08;100320.63;4975181;28;20031;-58
2023/01/15 01:37:37;;;;;;;6.78;1.73;;;;;;;10.94;79.21;100323.25;4986161;28;20049;-58
2023/01/15 01:40:04;;;;;;;6.00;2.00;;;;;;;10.80;81.12;100327.88;4994850;28;20033;-57
2023/01/15 01:42:31;;;;;;;11.23;1.88;;;;;;;10.68;82.30;100331.50;4994874;28;20084;-58
2023/01/15 01:45:18;;;;;;;10.52;2.53;;;;;;;10.48;83.97;100318.28;4994762;28;20030;-59
2023/01/15 01:47:46;;;;;;;14.63;3.03;;;;;;;10.34;84.16;100322.91;4974501;28;20038;-58
2023/01/15 01:50:13;;;;;;;12.18;2.70;;;;;;;10.37;84.72;100310.94;4989385;28;20060;-58
2023/01/15 01:53:03;;;;;;;4.43;1.73;;;;;;;10.30;82.19;100327.88;4992811;28;20395;-58
2023/01/15 01:55:32;;;;;;;4.03;1.15;;;;;;;10.21;83.40;100329.13;4990232;28;20034;-58
2023/01/15 01:58:01;;;;;;;5.38;1.33;;;;;;;10.28;84.03;100343.31;4974628;28;20445;-59
2023/01/15 02:00:30;;;;;;;4.30;1.88;;;;;;;10.29;83.73;100346.81;4974195;28;20030;-58
2023/01/15 02:02:57;;;;;;;7.05;1.27;;;;;;;10.29;83.75;100330.78;4994159;28;20233;-58
2023/01/15 02:05:29;;;;;;;7.80;1.80;;;;;;;10.34;83.63;100340.81;4991316;28;20019;-58
2023/01/15 02:07:56;;;;;;;7.13;2.05;;;;;;;10.27;84.17;100317.63;4983166;28;20544;-58
2023/01/15 02:10:22;;;;;;;6.88;1.85;;;;;;;10.15;84.43;100313.94;4974668;28;20030;-58
2023/01/15 02:12:58;;;;;;;8.82;2.05;;;;;;;10.26;84.36;100315.97;4987584;28;20030;-59
2023/01/15 02:15:41;;;;;;;8.93;2.30;;;;;;;10.40;84.51;100321.22;4994148;28;20611;-60
2023/01/15 02:18:42;;;;;;;5.68;1.58;;;;;;;10.40;83.58;100322.03;4993436;28;20113;-59
2023/01/15 02:21:38;;;;;;;3.00;1.60;;;;;;;10.43;82.89;100326.94;4926963;28;20485;-58
2023/01/15 02:24:16;;;;;;;5.55;1.45;;;;;;;10.48;82.85;100331.66;4974064;28;20492;-58
2023/01/15 02:27:09;;;;;;;9.18;1.80;;;;;;;10.51;82.96;100320.53;4992895;28;20042;-58
2023/01/15 02:29:46;;;;;;;5.82;1.30;;;;;;;10.55;83.24;100329.75;4993455;28;20029;-58
2023/01/15 02:32:29;;;;;;;6.30;1.88;;;;;;;10.62;83.17;100333.19;4993947;28;20485;-58
2023/01/15 02:35:01;;;;;;;8.00;1.90;;;;;;;10.70;83.02;100324.88;4988707;28;20162;-59
2023/01/15 02:37:32;;;;;;;7.25;1.58;;;;;;;10.76;82.51;100336.56;4993258;28;20452;-59
2023/01/15 02:40:00;;;;;;;7.07;1.77;;;;;;;10.77;nan;100336.38;4993390;28;20026;-59
2023/01/15 02:42:29;;;;;;;8.05;1.40;;;;;;;10.70;82.18;100335.59;4993512;28;20014;-59
2023/01/15 02:45:00;;;;;;;5.38;2.60;;;;;;;10.72;82.82;100340.75;4993191;28;20033;-58
2023/01/15 02:47:32;;;;;;;12.02;6.30;;;;;;;10.72;82.42;100340.75;4993655;28;20050;-58
2023/01/15 02:50:03;;;;;;;8.00;3.72;;;;;;;10.77;82.54;100346.22;4993583;28;20105;-59
2023/01/15 02:52:37;;;;;;;6.85;2.55;;;;;;;10.63;82.73;100352.75;4976379;28;20037;-58
2023/01/15 02:55:10;;;;;;;5.60;2.20;;;;;;;10.77;82.90;100349.75;4993031;28;20117;-58
2023/01/15 02:57:40;;;;;;;4.93;1.52;;;;;;;10.84;82.88;100345.16;4992628;28;20026;-59
2023/01/15 03:00:12;;;;;;;3.88;1.55;;;;;;;10.91;82.50;100349.63;4987244;28;20019;-58
2023/01/15 03:02:53;;;;;;;6.43;1.48;;;;;;;10.88;82.14;100344.69;4984857;28;20019;-58
2023/01/15 03:05:39;;;;;;;9.02;1.63;;;;;;;10.98;81.90;100350.38;4993203;28;20480;-58
2023/01/15 03:08:07;;;;;;;7.30;1.40;;;;;;;10.90;81.88;100348.00;4992728;28;20125;-59
2023/01/15 03:10:52;;;;;;;5.70;1.35;;;;;;;10.95;82.05;100348.16;4992097;28;20018;-58
2023/01/15 03:13:36;;;;;;;5.25;1.50;;;;;;;11.02;81.86;100352.41;4992142;28;20121;-58
2023/01/15 03:16:34;;;;;;;5.93;1.50;;;;;;;11.06;81.40;100342.88;4992304;28;20030;-57
2023/01/15 03:19:16;;;;;;;3.17;1.40;;;;;;;11.14;80.73;100344.44;4987220;28;20807;-58
2023/01/15 03:22:10;;;;;;;4.55;1.48;;;;;;;10.92;81.21;100337.88;4992436;28;20516;-58
2023/01/15 03:24:43;;;;;;;3.08;1.30;;;;;;;10.93;81.15;100342.19;4992782;28;20457;-58
2023/01/15 03:27:10;;;;;;;2.80;1.63;;;;;;;10.95;80.79;100356.19;4992734;28;20066;-58
2023/01/15 03:29:41;;;;;;;4.70;1.52;;;;;;;11.02;80.72;100357.75;4992304;28;20038;-58
2023/01/15 03:32:08;;;;;;;7.60;1.45;;;;;;;10.93;81.18;100366.28;4992461;28;20033;-58
2023/01/15 03:34:45;;;;;;;5.18;1.23;;;;;;;10.98;80.93;100366.44;4992541;28;20394;-58
2023/01/15 03:37:12;;;;;;;2.80;1.02;;;;;;;11.02;80.46;100375.69;4991996;28;20389;-59
2023/01/15 03:39:39;;;;;;;2.88;0.82;;;;;;;11.04;79.84;100362.88;4992361;28;20032;-57
2023/01/15 03:42:15;;;;;;;3.90;1.65;;;;;;;10.95;80.47;100366.91;4992284;28;20030;-58
2023/01/15 03:44:58;;;;;;;2.50;1.02;;;;;;;11.06;80.18;100379.56;4992287;28;20113;-59
2023/01/15 03:47:33;;;;;;;4.45;1.52;;;;;;;11.15;79.92;100377.41;4988395;28;20030;-58
2023/01/15 03:50:24;;;;;;;3.17;1.25;;;;;;;11.00;80.77;100367.88;4992504;28;20030;-58
2023/01/15 03:53:07;;;;;;;7.07;1.30;;;;;;;11.01;81.28;100371.38;4992170;28;20034;-59
2023/01/15 03:55:47;;;;;;;3.33;1.10;;;;;;;11.04;81.19;100369.06;4991968;28;20041;-58
2023/01/15 03:58:29;;;;;;;2.80;1.38;;;;;;;11.04;81.30;100365.56;4992210;28;20106;-59
2023/01/15 04:01:00;;;;;;;4.32;1.55;;;;;;;11.06;81.58;100371.53;4979638;28;20089;-58
2023/01/15 04:03:29;;;;;;;2.67;1.30;;;;;;;10.88;82.09;100371.47;5004961;28;20061;-59
2023/01/15 04:05:59;;;;;;;6.20;1.70;;;;;;;10.87;82.70;100364.47;4990089;28;20034;-59
2023/01/15 04:08:30;;;;;;;9.55;2.00;;;;;;;10.81;83.27;100371.53;4991947;28;20122;-58
2023/01/15 04:10:58;;;;;;;7.32;1.60;;;;;;;10.91;83.25;100368.38;4991643;28;20054;-58
2023/01/15 04:13:25;;;;;;;7.32;1.63;;;;;;;10.99;83.40;100357.34;4991895;28;20068;-58
2023/01/15 04:15:51;;;;;;;6.97;1.58;;;;;;;11.11;82.88;100358.31;4991889;28;20033;-58
2023/01/15 04:18:20;;;;;;;5.63;1.52;;;;;;;11.21;82.38;100360.44;4991963;28;20385;-59
2023/01/15 04:20:47;;;;;;;7.25;1.67;;;;;;;11.35;82.09;100368.13;4992114;28;20023;-59
2023/01/15 04:23:13;;;;;;;6.97;1.73;;;;;;;11.22;82.46;100362.94;4991895;28;20061;-59
2023/01/15 04:25:40;;;;;;;7.78;1.42;;;;;;;11.17;82.99;100361.94;4991957;28;20027;-59
2023/01/15 04:28:07;;;;;;;9.90;2.03;;;;;;;11.19;83.34;100367.91;4991345;28;20105;-59
2023/01/15 04:30:35;;;;;;;6.28;1.52;;;;;;;11.15;83.81;100366.69;4991828;28;20113;-58
2023/01/15 04:33:01;;;;;;;7.32;1.85;;;;;;;11.29;83.33;100358.31;4991793;28;20098;-58
2023/01/15 04:35:27;;;;;;;7.65;1.63;;;;;;;11.26;83.52;100363.28;4992125;28;20080;-58
2023/01/15 04:37:58;;;;;;;5.85;1.58;;;;;;;11.24;83.97;100368.06;4991332;28;20073;-58
2023/01/15 04:45:58;;;;;;;3.78;0.80;;;;;;;9.90;82.33;100398.63;4972791;28;20037;-58
2023/01/15 04:48:27;;;;;;;2.05;0.60;;;;;;;9.57;84.79;100404.09;4972310;28;20023;-58
2023/01/15 04:50:54;;;;;;;1.13;0.73;;;;;;;9.72;85.20;100391.31;4972299;28;20023;-58
2023/01/15 04:53:20;;;;;;;4.78;0.85;;;;;;;9.58;85.62;100401.19;4972443;28;20033;-58
2023/01/15 04:55:46;;;;;;;4.82;0.82;;;;;;;9.46;87.52;100426.94;4972383;28;20097;-58
2023/01/15 04:58:12;;;;;;;2.60;0.82;;;;;;;9.28;88.54;100419.56;4972055;28;20130;-58
2023/01/15 05:00:40;;;;;;;5.22;1.17;;;;;;;8.99;91.40;100405.63;4984244;28;20528;-58
2023/01/15 05:03:06;;;;;;;3.50;1.20;;;;;;;8.96;93.01;100399.88;4991643;28;20052;-58
2023/01/15 05:05:32;;;;;;;3.00;0.80;;;;;;;9.32;90.05;100417.28;4991678;28;20034;-58
2023/01/15 05:07:59;;;;;;;3.15;0.80;;;;;;;9.25;90.56;100423.47;4991466;28;20085;-58
2023/01/15 05:10:25;;;;;;;1.52;0.63;;;;;;;9.06;91.21;100416.31;4991604;28;20102;-58
2023/01/15 05:12:51;;;;;;;2.58;0.70;;;;;;;9.06;91.38;100410.16;4991536;28;20053;-58
2023/01/15 05:15:17;;;;;;;1.85;0.60;;;;;;;9.06;91.32;100415.50;4991976;28;20465;-58
2023/01/15 05:17:44;;;;;;;3.70;0.95;;;;;;;8.96;92.11;100426.56;4991240;28;20113;-58
2023/01/15 05:20:10;;;;;;;2.05;0.50;;;;;;;8.97;92.22;100422.88;4991291;28;20109;-58
2023/01/15 05:22:36;;;;;;;4.22;0.80;;;;;;;9.12;92.53;100414.66;4993887;28;20030;-58
2023/01/15 05:25:03;;;;;;;1.92;0.60;;;;;;;9.14;91.89;100424.09;4994691;28;20093;-58
2023/01/15 05:27:30;;;;;;;1.70;0.68;;;;;;;9.34;91.31;100431.28;4991724;28;20449;-58
2023/01/15 05:29:56;;;;;;;1.63;0.70;;;;;;;9.37;91.10;100433.50;4993017;23;20485;-59
2023/01/15 05:32:22;;;;;;;2.55;0.57;;;;;;;9.31;91.67;100418.31;5034064;28;20480;-58
2023/01/15 05:34:49;;;;;;;2.30;0.68;;;;;;;9.31;90.76;100418.31;5021860;28;20029;-58
2023/01/15 05:37:15;;;;;;;1.98;0.80;;;;;;;9.43;89.57;100416.66;5034128;28;20147;-58
2023/01/15 05:39:41;;;;;;;2.28;0.63;;;;;;;9.32;90.88;100417.28;5033973;28;20115;-58
2023/01/15 05:42:07;;;;;;;4.90;1.17;;;;;;;9.45;89.02;100420.78;5033986;28;20052;-58
2023/01/15 05:44:34;;;;;;;3.60;0.70;;;;;;;9.33;89.64;100417.09;5033949;28;20032;-58
2023/01/15 05:47:04;;;;;;;5.47;0.77;;;;;;;9.53;89.36;100412.50;5016169;28;20416;-59
2023/01/15 05:49:31;;;;;;;1.58;0.80;;;;;;;9.51;88.76;100419.13;5014658;28;20026;-58
2023/01/15 05:51:59;;;;;;;2.97;0.60;;;;;;;9.40;89.25;100409.06;5024484;28;20387;-58
2023/01/15 05:54:31;;;;;;;1.50;0.60;;;;;;;9.24;89.79;100408.47;5033855;28;20029;-58
2023/01/15 05:56:57;;;;;;;1.80;0.70;;;;;;;9.24;90.61;100407.66;5033497;28;20028;-59
2023/01/15 05:59:26;;;;;;;3.60;0.50;;;;;;;9.11;90.70;100402.34;5033631;28;20024;-58
2023/01/15 06:01:54;;;;;;;1.65;0.60;;;;;;;9.12;90.82;100401.31;5033857;28;20026;-58
2023/01/15 06:04:21;;;;;;;1.02;0.60;;;;;;;9.23;90.03;100404.16;5033685;28;20037;-59
2023/01/15 06:06:49;;;;;;;0.95;0.68;;;;;;;9.25;90.03;100412.78;5033541;28;20025;-58
2023/01/15 06:09:15;;;;;;;2.15;0.60;;;;;;;9.34;89.24;100408.06;5033418;28;20509;-58
2023/01/15 06:11:41;;;;;;;3.08;0.80;;;;;;;9.45;88.89;100415.44;5033513;28;20124;-58
2023/01/15 06:14:09;;;;;;;1.15;0.57;;;;;;;9.32;88.46;100409.28;5033544;28;20112;-59
2023/01/15 06:16:36;;;;;;;1.67;0.77;;;;;;;9.41;88.36;100424.06;5033546;28;20031;-59
2023/01/15 06:19:05;;;;;;;1.23;0.50;;;;;;;9.37;87.91;100433.50;5033443;28;20052;-59
2023/01/15 06:21:33;;;;;;;3.97;1.33;;;;;;;9.21;87.66;100424.06;5032319;28;20490;-58
2023/01/15 06:24:00;;;;;;;3.28;1.40;;;;;;;9.29;87.70;100425.72;5013749;28;20040;-59
2023/01/15 06:26:27;;;;;;;2.20;1.08;;;;;;;9.27;87.13;100423.25;5022864;28;20503;-59
2023/01/15 06:28:54;;;;;;;1.85;1.10;;;;;;;9.33;86.68;100422.44;5033395;28;20112;-59
2023/01/15 06:31:23;;;;;;;3.80;1.30;;;;;;;9.28;86.69;100429.44;5033269;28;20060;-59
2023/01/15 06:33:49;;;;;;;1.98;1.10;;;;;;;9.35;86.07;100432.91;5032018;28;20040;-59
2023/01/15 06:36:20;;;;;;;6.28;1.27;;;;;;;9.29;86.19;100431.88;5033219;28;20100;-58
2023/01/15 06:38:47;;;;;;;2.53;1.33;;;;;;;9.23;86.18;100433.53;5032730;28;20625;-59
2023/01/15 06:49:45;;;;;;;4.97;2.00;;;;;;;8.89;88.27;100433.75;5033346;28;20052;-59
2023/01/15 06:52:12;;;;;;;2.78;1.10;;;;;;;8.81;89.69;100433.94;5032718;28;20391;-59
2023/01/15 06:54:38;;;;;;;2.72;1.35;;;;;;;8.90;88.98;100427.38;5032970;28;20033;-59
2023/01/15 06:57:05;;;;;;;2.40;1.02;;;;;;;8.93;88.89;100421.63;5032518;28;20057;-59
2023/01/15 06:59:31;;;;;;;3.47;1.58;;;;;;;9.29;87.10;100425.72;5031190;28;20029;-59
2023/01/15 07:01:57;;;;;;;3.83;1.90;;;;;;;9.02;88.10;100430.25;5012960;28;20109;-59
2023/01/15 07:04:24;;;;;;;4.40;1.90;;;;;;;8.67;90.17;100433.13;5012795;28;20034;-60
2023/01/15 07:06:50;;;;;;;5.47;1.92;;;;;;;8.53;91.62;100421.59;5012680;28;20120;-58
2023/01/15 07:09:16;;;;;;;3.80;1.58;;;;;;;8.81;90.17;100420.59;5012901;28;20491;-59
2023/01/15 07:11:49;;;;;;;2.75;1.35;;;;;;;8.56;92.04;100426.53;5012822;28;20039;-59
2023/01/15 07:14:21;;;;;;;3.63;1.63;;;;;;;8.83;90.50;100432.72;5012576;28;20120;-59
2023/01/15 07:16:48;;;;;;;2.47;1.70;;;;;;;8.85;90.56;100435.19;5017016;28;20021;-59
2023/01/15 07:19:15;;;;;;;6.93;1.60;;;;;;;9.01;89.67;100436.63;5032493;28;20025;-59
2023/01/15 07:21:41;;;;;;;4.28;2.00;;;;;;;9.17;88.35;100439.72;5033266;28;20376;-59
2023/01/15 07:24:09;;;;;;;3.03;1.30;;;;;;;9.38;87.44;100435.16;5032296;28;20099;-59
2023/01/15 07:26:36;;;;;;;3.03;1.83;;;;;;;9.45;87.10;100450.16;5031842;28;20391;-59
2023/01/15 07:29:03;;;;;;;5.22;2.10;;;;;;;9.06;88.70;100442.19;5031106;28;20445;-59
2023/01/15 07:31:29;;;;;;;4.68;1.77;;;;;;;9.00;89.64;100438.50;5053117;23;20064;-59
2023/01/15 07:33:56;;;;;;;4.00;1.45;;;;;;;8.87;90.99;100431.28;5051923;28;20485;-59
2023/01/15 07:36:23;;;;;;;2.92;1.80;;;;;;;8.78;91.83;100426.38;5051622;28;20029;-59
2023/01/15 07:38:49;;;;;;;4.45;2.05;;;;;;;8.95;91.30;100417.75;5051873;28;20051;-59
2023/01/15 07:49:44;;;;;;;2.78;1.70;;;;;;;9.09;91.05;100426.56;5051813;28;20082;-60
2023/01/15 07:52:21;;;;;;;3.63;1.75;;;;;;;9.24;90.86;100424.50;5051714;28;20065;-60
2023/01/15 07:54:49;;;;;;;5.45;2.08;;;;;;;9.33;89.67;100440.28;5051722;28;20040;-59
2023/01/15 07:57:21;;;;;;;4.28;1.90;;;;;;;9.24;90.00;100437.84;5051553;28;20044;-60
2023/01/15 07:59:48;;;;;;;4.53;2.00;;;;;;;9.29;89.73;100450.59;5048681;28;20022;-60
2023/01/15 08:02:14;;;;;;;5.75;2.28;;;;;;;9.29;89.66;100460.44;5031852;28;20052;-59
2023/01/15 08:04:41;;;;;;;3.60;1.95;;;;;;;9.35;89.16;100465.78;5031720;28;20029;-59
2023/01/15 08:07:07;;;;;;;4.63;2.33;;;;;;;9.23;88.90;100468.25;5031493;28;20022;-59
2023/01/15 08:09:34;;;;;;;7.10;2.47;;;;;;;9.12;89.28;100468.06;5031665;28;20022;-60
2023/01/15 08:17:36;;;;;;;10.55;3.35;;;;;;;9.16;89.18;100454.09;5051694;28;20113;-57
2023/01/15 08:20:04;;;;;;;7.10;3.58;;;;;;;9.06;90.25;100448.34;5051460;28;20036;-59
2023/01/15 08:22:30;;;;;;;7.28;3.78;;;;;;;9.19;89.60;100448.31;5051611;28;20017;-59
2023/01/15 08:24:57;;;;;;;10.07;4.65;;;;;;;9.11;89.51;100453.88;5050427;28;20061;-57
2023/01/15 08:27:23;;;;;;;8.38;4.05;;;;;;;9.12;89.83;100460.88;5031483;28;20021;-57
2023/01/15 08:29:50;;;;;;;6.38;3.65;;;;;;;9.16;89.81;100458.59;5031220;28;20038;-57
2023/01/15 08:32:16;;;;;;;11.73;3.60;;;;;;;9.42;88.62;100471.94;5031187;28;20499;-57
2023/01/15 08:34:42;;;;;;;6.20;2.95;;;;;;;9.32;88.99;100463.50;5031133;28;20032;-57
2023/01/15 08:37:09;;;;;;;5.93;3.42;;;;;;;9.32;89.00;100468.84;5029993;28;20434;-56
2023/01/15 08:39:35;;;;;;;8.38;3.35;;;;;;;9.15;90.88;100475.63;5031396;28;20375;-56
2023/01/15 08:42:01;;;;;;;6.90;3.17;;;;;;;9.71;88.40;100470.63;5031273;28;20521;-57
2023/01/15 08:44:27;;;;;;;7.05;3.08;;;;;;;9.44;88.65;100463.72;5031311;28;20058;-56
2023/01/15 08:46:54;;;;;;;5.25;3.10;;;;;;;9.36;89.17;100463.94;5030969;28;20116;-59
2023/01/15 08:49:20;;;;;;;7.10;3.03;;;;;;;9.41;89.32;100472.13;5030975;28;20112;-56
2023/01/15 08:51:50;;;;;;;8.77;3.30;;;;;;;9.38;89.25;100460.00;5031485;28;20095;-57
2023/01/15 08:54:18;;;;;;;7.68;3.00;;;;;;;9.38;89.41;100461.84;5030925;28;20480;-56
2023/01/15 08:56:45;;;;;;;9.48;3.97;;;;;;;9.23;90.20;100460.25;5032320;28;20025;-56
2023/01/15 08:59:11;;;;;;;8.88;3.05;;;;;;;9.14;91.08;100460.66;5034820;28;20502;-57
2023/01/15 09:01:37;;;;;;;6.18;3.03;;;;;;;9.30;90.67;100472.78;5033336;28;20049;-57
2023/01/15 09:04:05;;;;;;;12.80;4.25;;;;;;;8.94;92.19;100479.34;5034866;28;20543;-56
2023/01/15 09:06:32;;;;;;;9.23;3.08;;;;;;;8.83;93.48;100490.59;5034374;28;20491;-57
2023/01/15 09:09:01;;;;;;;6.72;3.25;;;;;;;8.99;92.30;100493.72;5034452;28;20580;-57
2023/01/15 09:11:28;;;;;;;9.00;2.90;;;;;;;9.05;91.89;100496.56;5034796;28;20025;-56
2023/01/15 09:13:54;;;;;;;8.52;2.97;;;;;;;9.13;91.28;100494.53;5034824;28;20580;-57
2023/01/15 09:16:21;;;;;;;5.15;3.05;;;;;;;9.20;90.98;100491.88;5034551;28;20037;-56
2023/01/15 09:18:47;;;;;;;5.63;3.17;;;;;;;9.26;90.17;100489.19;5034618;28;20032;-57
2023/01/15 09:21:13;;;;;;;6.05;3.30;;;;;;;9.20;90.35;100486.53;5034591;28;20030;-56
2023/01/15 09:23:39;;;;;;;10.02;3.47;;;;;;;9.14;90.72;100484.69;5034727;28;20499;-57
2023/01/15 09:26:07;;;;;;;6.68;2.90;;;;;;;9.24;90.37;100475.22;5032827;28;20033;-57
2023/01/15 09:28:34;;;;;;;5.25;2.80;;;;;;;9.23;91.14;100460.25;5039528;23;20053;-57
2023/01/15 09:31:01;;;;;;;10.88;2.92;;;;;;;9.11;91.51;100451.22;5034380;28;20037;-56
2023/01/15 09:33:27;;;;;;;11.82;3.20;;;;;;;8.95;93.12;100463.13;5034168;28;20044;-57
2023/01/15 09:35:53;;;;;;;11.77;2.80;;;;;;;8.81;94.27;100458.78;5034431;28;20052;-59
2023/01/15 09:38:20;;;;;;;10.73;2.60;;;;;;;8.95;94.20;100462.31;5034088;28;20030;-59
2023/01/15 09:40:49;;;;;;;10.30;2.95;;;;;;;9.09;92.74;100460.44;5032635;28;20558;-59
2023/01/15 09:44:00;;;;;;;11.38;2.33;;;;;;;9.19;92.06;100455.50;5016290;28;20180;-59
2023/01/15 09:46:47;;;;;;;7.45;2.25;;;;;;;9.19;91.65;100453.66;5033925;28;20029;-56
2023/01/15 09:49:17;;;;;;;16.58;3.47;;;;;;;9.36;90.76;100456.72;5034161;28;20399;-56
2023/01/15 09:51:59;;;;;;;9.05;2.70;;;;;;;9.36;90.39;100462.06;5034123;28;20480;-56
2023/01/15 09:55:07;;;;;;;14.35;2.70;;;;;;;9.33;90.64;100485.69;5033773;28;20033;-56
2023/01/15 09:57:34;;;;;;;12.93;2.60;;;;;;;9.59;90.11;100492.88;5033557;28;20087;-56
2023/01/15 10:00:04;;;;;;;17.10;2.63;;;;;;;9.52;90.55;100506.25;5033700;28;20040;-57
2023/01/15 10:02:30;;;;;;;12.30;3.47;;;;;;;9.49;91.35;100520.00;5033870;28;20029;-57
2023/01/15 10:05:06;;;;;;;8.63;2.38;;;;;;;9.55;91.19;100518.34;5031619;28;20048;-57
2023/01/15 10:07:41;;;;;;;9.80;2.50;;;;;;;9.58;91.11;100529.47;5033513;28;20033;-57
2023/01/15 10:10:14;;;;;;;8.60;2.75;;;;;;;9.60;90.91;100527.38;5033725;28;20060;-57
2023/01/15 10:12:43;;;;;;;11.75;2.78;;;;;;;9.54;91.41;100538.91;5033580;28;20429;-57
2023/01/15 10:15:13;;;;;;;6.63;2.55;;;;;;;9.48;92.13;100540.56;5033226;28;20030;-57
2023/01/15 10:17:45;;;;;;;21.48;3.65;;;;;;;9.41;92.11;100531.72;5033233;28;20030;-57
2023/01/15 10:20:48;;;;;;;14.50;2.85;;;;;;;9.45;92.40;100532.97;5033563;28;20535;-57
2023/01/15 10:23:52;;;;;;;15.48;3.40;;;;;;;9.49;92.48;100549.38;5033583;28;20037;-58
2023/01/15 10:26:30;;;;;;;11.05;2.75;;;;;;;9.51;92.22;100542.00;5013107;28;20022;-57
2023/01/15 10:28:56;;;;;;;12.00;2.88;;;;;;;9.50;92.06;100541.19;5013588;28;20116;-57
2023/01/15 10:31:33;;;;;;;11.43;3.25;;;;;;;9.60;91.59;100540.75;5012245;28;20041;-57
2023/01/15 10:34:31;;;;;;;15.57;3.00;;;;;;;9.66;91.26;100536.44;5013268;28;20109;-57
2023/01/15 10:37:06;;;;;;;14.70;3.22;;;;;;;9.82;90.96;100543.19;5013043;28;20077;-57
2023/01/15 10:39:45;;;;;;;10.00;3.20;;;;;;;9.82;90.82;100540.53;5013203;28;20022;-57
2023/01/15 10:42:43;;;;;;;26.63;3.80;;;;;;;9.80;91.58;100546.09;5013295;28;20547;-57
2023/01/15 10:45:13;;;;;;;13.65;3.95;;;;;;;9.78;91.85;100542.81;5013334;28;20093;-57
2023/01/15 10:47:42;;;;;;;11.40;3.05;;;;;;;9.90;91.48;100543.00;5013144;28;20029;-57
2023/01/15 10:50:27;;;;;;;10.32;2.97;;;;;;;10.07;91.17;100530.00;5010570;28;20072;-57
2023/01/15 10:53:02;;;;;;;19.35;3.90;;;;;;;10.06;91.25;100537.19;5009700;28;20048;-57
2023/01/15 10:55:40;;;;;;;17.77;3.25;;;;;;;10.08;91.00;100545.00;4993564;28;20175;-57
2023/01/15 10:58:21;;;;;;;15.68;4.03;;;;;;;10.21;90.71;100548.44;5012149;28;20025;-57
2023/01/15 11:00:56;;;;;;;15.15;3.42;;;;;;;10.14;90.58;100550.31;5012258;28;20025;-56
2023/01/15 11:03:43;;;;;;;10.32;3.25;;;;;;;9.99;90.92;100547.91;5009854;28;20022;-57
2023/01/15 11:06:18;;;;;;;12.25;3.92;;;;;;;10.01;91.10;100543.16;5012309;28;20979;-57
2023/01/15 11:08:52;;;;;;;8.77;2.80;;;;;;;9.96;91.18;100534.94;5013061;28;20121;-57
2023/01/15 11:20:45;;;;;;;13.55;3.30;;;;;;;10.00;89.85;100546.06;5005791;28;20045;-58
2023/01/15 11:23:20;;;;;;;14.30;3.35;;;;;;;9.96;90.12;100544.84;4993822;28;20435;-58
2023/01/15 11:25:53;;;;;;;11.88;3.53;;;;;;;9.87;90.28;100540.72;5008380;28;20032;-58
2023/01/15 11:28:41;;;;;;;11.30;3.22;;;;;;;9.90;90.45;100534.97;5012810;28;20032;-58
2023/01/15 11:31:10;;;;;;;15.30;3.75;;;;;;;9.82;90.07;100533.31;5012750;28;20068;-58
2023/01/15 11:33:37;;;;;;;12.50;3.33;;;;;;;9.82;90.49;100538.66;5000146;28;20053;-58
2023/01/15 11:36:07;;;;;;;16.83;3.50;;;;;;;9.82;90.17;100538.66;4992295;28;20026;-58
2023/01/15 11:38:48;;;;;;;10.32;2.92;;;;;;;9.83;89.75;100536.81;4998212;28;20484;-58
2023/01/15 11:41:23;;;;;;;14.25;3.58;;;;;;;9.78;89.71;100532.13;5012359;28;20037;-58
2023/01/15 11:52:16;;;;;;;13.70;3.67;;;;;;;9.76;89.50;100518.94;4994727;28;20045;-58
2023/01/15 11:54:48;;;;;;;10.85;3.47;;;;;;;9.79;89.49;100517.72;4992537;28;20125;-58
2023/01/15 11:57:26;;;;;;;18.70;4.35;;;;;;;9.71;89.34;100513.41;4991891;28;20489;-58
2023/01/15 11:59:53;;;;;;;10.77;4.13;;;;;;;9.61;89.42;100510.34;4992618;28;20396;-57
2023/01/15 12:02:19;;;;;;;13.27;2.85;;;;;;;9.57;89.36;100516.31;4992291;28;20022;-57
2023/01/15 12:04:54;;;;;;;21.67;3.60;;;;;;;9.55;89.49;100499.66;4992353;28;20038;-57
2023/01/15 12:07:23;;;;;;;18.83;4.40;;;;;;;9.42;89.71;100495.97;4991884;28;20027;-58
2023/01/15 12:10:09;;;;;;;18.75;4.03;;;;;;;9.39;90.21;100490.25;4992292;28;20030;-58
2023/01/15 12:12:44;;;;;;;16.70;4.07;;;;;;;9.34;90.36;100495.38;4992282;28;20035;-58
2023/01/15 12:15:58;;;;;;;25.30;4.70;;;;;;;9.42;89.93;100495.97;5009395;28;20064;-59
2023/01/15 12:18:33;;;;;;;12.05;3.67;;;;;;;9.35;89.84;100497.00;4998868;28;20540;-59
2023/01/15 12:21:04;;;;;;;15.00;3.78;;;;;;;9.38;90.01;100499.25;5011777;28;20030;-58
2023/01/15 12:23:55;;;;;;;17.25;3.88;;;;;;;9.32;89.56;100495.56;5011436;28;20466;-58
2023/01/15 12:26:29;;;;;;;13.75;3.45;;;;;;;9.33;89.56;100493.72;5011692;28;20064;-59
2023/01/15 12:29:26;;;;;;;29.33;4.97;;;;;;;9.30;90.29;100489.63;4992009;28;20055;-58
2023/01/15 12:32:03;;;;;;;17.77;4.30;;;;;;;9.29;90.35;100481.81;4993556;28;20023;-59
2023/01/15 12:34:36;;;;;;;13.65;3.78;;;;;;;9.29;90.67;100489.81;4995968;28;20018;-58
2023/01/15 12:37:23;;;;;;;17.77;4.15;;;;;;;9.35;90.58;100484.47;4994635;28;20157;-59